createdAt,value
2018-01-14T00:01:39.519Z,77.54
2018-01-14T00:02:39.514Z,77.92
2018-01-14T00:04:32.408Z,77.92
2018-01-14T00:05:32.425Z,78.02
2018-01-14T00:07:25.340Z,78.11
2018-01-14T00:08:25.333Z,77.83
2018-01-14T00:10:18.244Z,78.39
2018-01-14T00:11:18.240Z,78.20
2018-01-14T00:13:11.133Z,78.87
2018-01-14T00:14:11.146Z,78.11
2018-01-14T00:16:04.062Z,78.02
2018-01-14T00:17:04.057Z,78.30
2018-01-14T00:18:56.952Z,78.67
2018-01-14T00:19:56.965Z,78.67
2018-01-14T00:21:49.879Z,78.49
2018-01-14T00:22:49.873Z,78.58
2018-01-14T00:24:42.772Z,78.30
2018-01-14T00:25:42.781Z,78.30
2018-01-14T00:27:35.698Z,78.30
2018-01-14T00:28:35.692Z,78.02
2018-01-14T00:30:28.638Z,77.88
2018-01-14T00:31:28.601Z,78.26
2018-01-14T00:33:21.500Z,79.21
2018-01-14T00:34:21.510Z,79.21
2018-01-14T00:36:14.423Z,79.21
2018-01-14T00:37:14.418Z,79.21
2018-01-14T00:39:07.315Z,79.11
2018-01-14T00:40:07.349Z,79.11
2018-01-14T00:42:00.245Z,79.68
2018-01-14T00:43:00.261Z,79.68
2018-01-14T00:44:53.132Z,79.96
2018-01-14T00:45:53.171Z,79.72
2018-01-14T00:47:46.063Z,79.11
2018-01-14T00:48:46.061Z,78.58
2018-01-14T00:50:38.972Z,78.45
2018-01-14T00:51:38.987Z,78.67
2018-01-14T00:53:31.859Z,78.30
2018-01-14T00:54:31.888Z,78.87
2018-01-14T00:56:24.788Z,78.83
2018-01-14T00:57:24.793Z,78.73
2018-01-14T00:59:17.680Z,79.39
2018-01-14T01:00:17.702Z,78.92
2018-01-14T01:02:10.608Z,78.58
2018-01-14T01:03:10.611Z,78.73
2018-01-14T01:05:03.494Z,78.54
2018-01-14T01:06:03.516Z,78.64
2018-01-14T01:07:56.425Z,79.02
2018-01-14T01:08:56.423Z,79.58
2018-01-14T01:10:49.404Z,79.21
2018-01-14T01:11:49.342Z,79.21
2018-01-14T01:13:42.232Z,79.21
2018-01-14T01:14:42.247Z,79.11
2018-01-14T01:16:35.167Z,79.58
2018-01-14T01:17:35.156Z,79.68
2018-01-14T01:19:28.049Z,79.49
2018-01-14T01:20:28.074Z,79.68
2018-01-14T01:22:20.980Z,79.58
2018-01-14T01:23:20.984Z,79.96
2018-01-14T01:25:13.901Z,79.58
2018-01-14T01:26:13.890Z,80.06
2018-01-14T01:28:06.806Z,79.87
2018-01-14T01:29:06.802Z,79.58
2018-01-14T01:30:59.708Z,79.21
2018-01-14T01:31:59.705Z,79.49
2018-01-14T01:33:52.603Z,79.77
2018-01-14T01:34:52.618Z,79.87
2018-01-14T01:36:45.612Z,79.58
2018-01-14T01:37:45.528Z,79.87
2018-01-14T01:39:38.424Z,79.39
2018-01-14T01:40:38.436Z,79.11
2018-01-14T01:42:31.352Z,79.77
2018-01-14T01:43:31.347Z,79.68
2018-01-14T01:45:24.246Z,80.15
2018-01-14T01:46:24.265Z,80.15
2018-01-14T01:48:17.194Z,79.87
2018-01-14T01:49:17.195Z,79.77
2018-01-14T01:51:10.103Z,79.49
2018-01-14T01:52:10.096Z,79.58
2018-01-14T01:54:02.992Z,80.25
2018-01-14T01:55:03.006Z,80.25
2018-01-14T01:56:55.942Z,80.06
2018-01-14T01:57:55.940Z,80.15
2018-01-14T01:59:48.832Z,79.87
2018-01-14T02:00:48.846Z,79.87
2018-01-14T02:02:41.760Z,79.96
2018-01-14T02:03:41.756Z,79.87
2018-01-14T02:05:34.647Z,79.87
2018-01-14T02:06:34.665Z,79.96
2018-01-14T02:08:27.580Z,80.44
2018-01-14T02:09:27.574Z,79.96
2018-01-14T02:11:20.488Z,80.25
2018-01-14T02:12:20.483Z,80.15
2018-01-14T02:14:13.377Z,80.25
2018-01-14T02:15:13.395Z,80.25
2018-01-14T02:17:06.303Z,80.25
2018-01-14T02:18:06.297Z,79.87
2018-01-14T02:19:59.194Z,80.06
2018-01-14T02:20:59.205Z,80.06
2018-01-14T02:22:52.144Z,80.06
2018-01-14T02:23:52.141Z,79.96
2018-01-14T02:25:45.038Z,79.39
2018-01-14T02:26:45.055Z,80.06
2018-01-14T02:28:37.970Z,79.87
2018-01-14T02:29:37.959Z,79.87
2018-01-14T02:31:30.873Z,80.15
2018-01-14T02:32:30.869Z,79.68
2018-01-14T02:34:23.763Z,79.87
2018-01-14T02:35:23.779Z,79.77
2018-01-14T02:37:16.713Z,79.87
2018-01-14T02:38:16.693Z,79.49
2018-01-14T02:40:09.582Z,79.02
2018-01-14T02:41:09.597Z,78.83
2018-01-14T02:43:02.508Z,78.45
2018-01-14T02:44:02.502Z,79.21
2018-01-14T02:45:55.404Z,79.30
2018-01-14T02:46:55.439Z,79.21
2018-01-14T02:48:48.331Z,78.35
2018-01-14T02:49:48.338Z,78.26
2018-01-14T02:51:42.239Z,78.16
2018-01-14T02:52:42.234Z,78.64
2018-01-14T02:54:35.158Z,77.88
2018-01-14T02:55:35.138Z,77.78
2018-01-14T02:57:28.050Z,78.26
2018-01-14T02:58:28.047Z,78.26
2018-01-14T03:00:20.976Z,78.35
2018-01-14T03:01:20.956Z,78.26
2018-01-14T03:03:13.876Z,77.97
2018-01-14T03:04:13.872Z,78.07
2018-01-14T03:06:06.761Z,78.26
2018-01-14T03:07:06.776Z,78.07
2018-01-14T03:08:59.707Z,77.78
2018-01-14T03:09:59.708Z,77.12
2018-01-14T03:11:53.613Z,77.22
2018-01-14T03:12:53.607Z,76.84
2018-01-14T03:14:46.515Z,77.03
2018-01-14T03:15:46.527Z,76.84
2018-01-14T03:17:39.441Z,76.36
2018-01-14T03:18:39.441Z,77.03
2018-01-14T03:20:32.328Z,77.22
2018-01-14T03:21:32.345Z,76.93
2018-01-14T03:23:25.257Z,77.22
2018-01-14T03:24:25.257Z,78.07
2018-01-14T03:26:18.143Z,76.84
2018-01-14T03:27:18.158Z,77.03
2018-01-14T03:29:11.073Z,77.40
2018-01-14T03:30:11.069Z,76.74
2018-01-14T03:32:03.980Z,76.84
2018-01-14T03:33:03.976Z,77.78
2018-01-14T03:34:56.871Z,76.84
2018-01-14T03:35:56.883Z,77.78
2018-01-14T03:37:49.797Z,77.69
2018-01-14T03:38:49.793Z,77.12
2018-01-14T03:40:42.692Z,77.97
2018-01-14T03:41:42.704Z,77.78
2018-01-14T03:43:35.617Z,78.16
2018-01-14T03:44:35.613Z,77.40
2018-01-14T03:46:28.503Z,77.12
2018-01-14T03:47:28.518Z,76.36
2018-01-14T03:49:21.430Z,77.03
2018-01-14T03:50:21.426Z,77.12
2018-01-14T03:52:14.338Z,77.40
2018-01-14T03:53:14.333Z,77.22
2018-01-14T03:55:07.235Z,76.84
2018-01-14T03:56:07.248Z,77.03
2018-01-14T03:58:00.164Z,78.07
2018-01-14T03:59:00.159Z,76.74
2018-01-14T04:00:53.056Z,77.22
2018-01-14T04:01:53.067Z,77.03
2018-01-14T04:03:45.980Z,77.03
2018-01-14T04:04:45.975Z,76.65
2018-01-14T04:06:38.870Z,77.22
2018-01-14T04:07:38.882Z,77.22
2018-01-14T04:09:31.797Z,76.36
2018-01-14T04:10:31.791Z,76.74
2018-01-14T04:12:24.702Z,77.31
2018-01-14T04:13:24.699Z,77.22
2018-01-14T04:15:17.594Z,77.12
2018-01-14T04:16:17.604Z,76.93
2018-01-14T04:18:10.519Z,77.12
2018-01-14T04:19:10.512Z,77.22
2018-01-14T04:21:03.404Z,76.74
2018-01-14T04:22:03.422Z,76.74
2018-01-14T04:23:56.332Z,76.65
2018-01-14T04:24:56.326Z,76.55
2018-01-14T04:26:49.218Z,76.17
2018-01-14T04:27:49.231Z,76.93
2018-01-14T04:29:42.146Z,76.46
2018-01-14T04:30:42.144Z,76.27
2018-01-14T04:32:35.054Z,76.36
2018-01-14T04:33:35.047Z,76.27
2018-01-14T04:35:27.940Z,76.36
2018-01-14T04:36:27.955Z,76.65
2018-01-14T04:38:21.157Z,76.46
2018-01-14T04:39:20.865Z,75.89
2018-01-14T04:41:13.758Z,75.79
2018-01-14T04:42:13.773Z,76.17
2018-01-14T04:44:06.691Z,76.36
2018-01-14T04:45:06.685Z,75.89
2018-01-14T04:46:59.578Z,76.27
2018-01-14T04:47:59.589Z,76.65
2018-01-14T04:49:52.498Z,76.36
2018-01-14T04:50:52.495Z,75.32
2018-01-14T04:52:45.411Z,75.13
2018-01-14T04:53:45.403Z,75.13
2018-01-14T04:55:38.300Z,75.70
2018-01-14T04:56:38.315Z,75.79
2018-01-14T04:58:31.231Z,75.42
2018-01-14T04:59:31.218Z,75.23
2018-01-14T05:01:24.167Z,75.23
2018-01-14T05:02:24.122Z,74.75
2018-01-14T05:04:17.033Z,75.04
2018-01-14T05:05:17.029Z,75.51
2018-01-14T05:07:09.921Z,76.55
2018-01-14T05:08:09.935Z,76.17
2018-01-14T05:10:02.846Z,75.79
2018-01-14T05:11:02.874Z,75.42
2018-01-14T05:12:55.755Z,75.04
2018-01-14T05:13:55.747Z,74.85
2018-01-14T05:15:48.643Z,75.04
2018-01-14T05:16:48.657Z,75.04
2018-01-14T05:18:41.567Z,75.28
2018-01-14T05:19:41.560Z,75.42
2018-01-14T05:21:34.457Z,74.85
2018-01-14T05:22:34.472Z,75.09
2018-01-14T05:24:27.384Z,75.51
2018-01-14T05:25:27.380Z,75.04
2018-01-14T05:27:20.442Z,74.75
2018-01-14T05:28:20.458Z,75.04
2018-01-14T05:30:13.367Z,74.37
2018-01-14T05:31:13.363Z,74.37
2018-01-14T05:33:06.277Z,74.56
2018-01-14T05:34:06.272Z,75.00
2018-01-14T05:35:59.165Z,75.13
2018-01-14T05:36:59.177Z,74.81
2018-01-14T05:38:52.094Z,75.32
2018-01-14T05:39:52.081Z,74.52
2018-01-14T05:41:44.973Z,75.28
2018-01-14T05:42:44.989Z,75.00
2018-01-14T05:44:37.899Z,74.62
2018-01-14T05:45:37.894Z,74.90
2018-01-14T05:47:30.794Z,75.28
2018-01-14T05:48:30.810Z,75.28
2018-01-14T05:50:23.737Z,75.00
2018-01-14T05:51:23.713Z,75.19
2018-01-14T05:53:16.628Z,75.09
2018-01-14T05:54:16.620Z,75.09
2018-01-14T05:56:09.515Z,75.09
2018-01-14T05:57:09.528Z,75.09
2018-01-14T05:59:02.443Z,74.62
2018-01-14T06:00:02.437Z,74.62
2018-01-14T06:01:55.332Z,75.28
2018-01-14T06:02:55.344Z,75.28
2018-01-14T06:04:48.253Z,74.24
2018-01-14T06:05:48.248Z,74.52
2018-01-14T06:07:41.144Z,74.43
2018-01-14T06:08:41.158Z,74.33
2018-01-14T06:10:34.067Z,74.24
2018-01-14T06:11:34.061Z,74.43
2018-01-14T06:13:26.976Z,74.90
2018-01-14T06:14:26.970Z,74.43
2018-01-14T06:16:19.864Z,74.33
2018-01-14T06:17:19.876Z,74.33
2018-01-14T06:19:13.781Z,73.49
2018-01-14T06:20:13.778Z,74.43
2018-01-14T06:22:06.669Z,74.05
2018-01-14T06:23:06.686Z,73.20
2018-01-14T06:24:59.601Z,73.49
2018-01-14T06:25:59.593Z,73.86
2018-01-14T06:27:52.490Z,74.15
2018-01-14T06:28:52.502Z,74.15
2018-01-14T06:30:45.418Z,73.39
2018-01-14T06:31:45.411Z,73.30
2018-01-14T06:33:38.323Z,73.68
2018-01-14T06:34:38.317Z,73.49
2018-01-14T06:36:31.219Z,73.77
2018-01-14T06:37:31.227Z,74.43
2018-01-14T06:39:24.139Z,74.15
2018-01-14T06:40:24.133Z,74.15
2018-01-14T06:42:17.034Z,74.24
2018-01-14T06:43:17.046Z,74.43
2018-01-14T06:45:09.959Z,74.24
2018-01-14T06:46:09.954Z,74.33
2018-01-14T06:48:02.845Z,74.05
2018-01-14T06:49:02.861Z,74.24
2018-01-14T06:50:55.772Z,74.43
2018-01-14T06:51:55.772Z,74.15
2018-01-14T06:53:48.682Z,74.05
2018-01-14T06:54:48.674Z,74.43
2018-01-14T06:56:41.576Z,74.15
2018-01-14T06:57:41.586Z,74.24
2018-01-14T06:59:34.496Z,73.96
2018-01-14T07:00:34.489Z,74.33
2018-01-14T07:02:27.385Z,74.43
2018-01-14T07:03:27.399Z,74.90
2018-01-14T07:05:20.316Z,74.43
2018-01-14T07:06:20.311Z,74.52
2018-01-14T07:08:13.199Z,74.33
2018-01-14T07:09:13.212Z,74.52
2018-01-14T07:11:06.125Z,74.71
2018-01-14T07:12:06.126Z,74.15
2018-01-14T07:13:59.034Z,74.15
2018-01-14T07:14:59.030Z,74.24
2018-01-14T07:16:51.920Z,74.15
2018-01-14T07:17:51.934Z,73.77
2018-01-14T07:19:44.844Z,74.33
2018-01-14T07:20:44.840Z,74.05
2018-01-14T07:22:37.734Z,74.24
2018-01-14T07:23:37.747Z,74.15
2018-01-14T07:25:30.655Z,74.24
2018-01-14T07:26:30.650Z,74.33
2018-01-14T07:28:23.542Z,74.33
2018-01-14T07:29:23.556Z,74.33
2018-01-14T07:31:16.471Z,74.52
2018-01-14T07:32:16.464Z,74.24
2018-01-14T07:34:09.372Z,74.15
2018-01-14T07:35:09.368Z,74.33
2018-01-14T07:37:02.266Z,74.24
2018-01-14T07:38:02.325Z,74.15
2018-01-14T07:39:55.190Z,74.62
2018-01-14T07:40:55.186Z,74.24
2018-01-14T07:42:48.081Z,74.52
2018-01-14T07:43:48.092Z,73.86
2018-01-14T07:45:41.007Z,73.96
2018-01-14T07:46:41.001Z,74.15
2018-01-14T07:48:33.894Z,73.68
2018-01-14T07:49:33.905Z,74.24
2018-01-14T07:51:26.970Z,74.43
2018-01-14T07:52:26.963Z,74.33
2018-01-14T07:54:19.873Z,74.33
2018-01-14T07:55:19.871Z,73.86
2018-01-14T07:57:12.787Z,74.43
2018-01-14T07:58:12.818Z,74.62
2018-01-14T08:00:05.710Z,74.24
2018-01-14T08:01:05.705Z,74.33
2018-01-14T08:02:58.625Z,74.15
2018-01-14T08:03:58.642Z,74.24
2018-01-14T08:05:51.552Z,74.52
2018-01-14T08:06:51.546Z,74.81
2018-01-14T08:08:44.442Z,74.43
2018-01-14T08:09:44.458Z,74.15
2018-01-14T08:11:37.365Z,74.15
2018-01-14T08:12:37.359Z,74.33
2018-01-14T08:14:30.272Z,74.52
2018-01-14T08:15:30.268Z,74.71
2018-01-14T08:17:23.159Z,74.43
2018-01-14T08:18:23.174Z,73.77
2018-01-14T08:20:16.273Z,73.49
2018-01-14T08:21:16.268Z,73.49
2018-01-14T08:23:09.167Z,73.49
2018-01-14T08:24:09.172Z,73.49
2018-01-14T08:26:02.083Z,73.58
2018-01-14T08:27:02.080Z,73.49
2018-01-14T08:28:54.990Z,73.39
2018-01-14T08:29:54.985Z,73.30
2018-01-14T08:31:47.897Z,73.68
2018-01-14T08:32:47.891Z,73.39
2018-01-14T08:34:40.804Z,73.49
2018-01-14T08:35:40.798Z,73.39
2018-01-14T08:37:33.694Z,73.30
2018-01-14T08:38:33.708Z,73.39
2018-01-14T08:40:26.630Z,73.39
2018-01-14T08:41:26.618Z,73.49
2018-01-14T08:43:19.512Z,73.77
2018-01-14T08:44:19.525Z,73.49
2018-01-14T08:46:12.442Z,73.77
2018-01-14T08:47:12.438Z,73.68
2018-01-14T08:49:05.327Z,73.33
2018-01-14T08:50:05.343Z,73.30
2018-01-14T08:51:58.261Z,73.20
2018-01-14T08:52:58.249Z,73.20
2018-01-14T08:54:51.186Z,72.82
2018-01-14T08:55:51.162Z,72.82
2018-01-14T08:57:44.047Z,72.92
2018-01-14T08:58:44.111Z,73.01
2018-01-14T09:00:37.049Z,72.34
2018-01-14T09:01:37.001Z,72.92
2018-01-14T09:03:29.892Z,72.34
2018-01-14T09:04:29.906Z,71.78
2018-01-14T09:06:22.820Z,72.06
2018-01-14T09:07:22.817Z,71.91
2018-01-14T09:09:15.708Z,72.29
2018-01-14T09:10:15.722Z,71.81
2018-01-14T09:12:08.636Z,72.10
2018-01-14T09:13:08.631Z,72.10
2018-01-14T09:15:01.552Z,71.21
2018-01-14T09:16:01.539Z,71.34
2018-01-14T09:17:54.441Z,71.34
2018-01-14T09:18:54.457Z,71.34
2018-01-14T09:20:47.356Z,71.34
2018-01-14T09:21:47.406Z,71.15
2018-01-14T09:23:40.246Z,71.34
2018-01-14T09:24:40.262Z,71.25
2018-01-14T09:26:33.180Z,71.34
2018-01-14T09:27:33.171Z,70.68
2018-01-14T09:29:26.090Z,70.68
2018-01-14T09:30:26.110Z,70.58
2018-01-14T09:32:21.021Z,70.97
2018-01-14T09:33:19.878Z,70.68
2018-01-14T09:35:12.801Z,70.87
2018-01-14T09:36:12.812Z,70.58
2018-01-14T09:38:06.006Z,70.58
2018-01-14T09:39:05.747Z,70.39
2018-01-14T09:40:58.666Z,71.06
2018-01-14T09:41:58.658Z,70.78
2018-01-14T09:43:51.556Z,70.39
2018-01-14T09:44:51.567Z,70.58
2018-01-14T09:46:44.482Z,70.20
2018-01-14T09:47:44.501Z,69.82
2018-01-14T09:49:37.375Z,69.54
2018-01-14T09:50:37.447Z,69.64
2018-01-14T09:52:30.425Z,70.30
2018-01-14T09:53:30.379Z,69.92
2018-01-14T09:55:23.214Z,70.20
2018-01-14T09:56:23.219Z,70.30
2018-01-14T09:58:16.106Z,70.49
2018-01-14T09:59:16.118Z,70.01
2018-01-14T10:01:09.062Z,70.30
2018-01-14T10:02:09.051Z,70.49
2018-01-14T10:04:01.959Z,70.20
2018-01-14T10:05:01.982Z,70.20
2018-01-14T10:06:54.887Z,70.30
2018-01-14T10:07:54.882Z,70.11
2018-01-14T10:09:47.791Z,68.79
2018-01-14T10:10:47.804Z,68.69
2018-01-14T10:12:40.716Z,68.40
2018-01-14T10:13:40.735Z,68.21
2018-01-14T10:15:33.632Z,69.26
2018-01-14T10:16:33.628Z,68.50
2018-01-14T10:18:26.531Z,68.88
2018-01-14T10:19:26.547Z,69.26
2018-01-14T10:21:19.454Z,69.07
2018-01-14T10:22:19.451Z,69.45
2018-01-14T10:24:12.346Z,69.07
2018-01-14T10:25:12.360Z,69.07
2018-01-14T10:27:05.275Z,68.79
2018-01-14T10:28:05.271Z,69.45
2018-01-14T10:29:58.174Z,69.35
2018-01-14T10:30:58.187Z,68.21
2018-01-14T10:32:51.243Z,68.40
2018-01-14T10:33:51.095Z,68.21
2018-01-14T10:35:44.017Z,68.50
2018-01-14T10:36:44.012Z,68.02
2018-01-14T10:38:36.920Z,67.83
2018-01-14T10:39:36.939Z,67.46
2018-01-14T10:41:29.859Z,67.46
2018-01-14T10:42:29.853Z,68.02
2018-01-14T10:44:22.764Z,68.31
2018-01-14T10:45:22.776Z,67.83
2018-01-14T10:47:15.701Z,67.65
2018-01-14T10:48:15.694Z,67.49
2018-01-14T10:50:08.589Z,67.58
2018-01-14T10:51:08.602Z,67.49
2018-01-14T10:53:01.541Z,67.49
2018-01-14T10:54:01.528Z,67.68
2018-01-14T10:55:54.493Z,67.49
2018-01-14T10:56:54.471Z,67.49
2018-01-14T10:58:47.915Z,66.74
2018-01-14T10:59:47.962Z,67.77
2018-01-14T11:01:41.455Z,66.83
2018-01-14T11:02:41.297Z,66.26
2018-01-14T11:04:34.531Z,66.03
2018-01-14T11:05:34.545Z,66.22
2018-01-14T11:07:27.459Z,66.13
2018-01-14T11:08:27.454Z,65.88
2018-01-14T11:10:20.348Z,66.16
2018-01-14T11:11:20.364Z,65.97
2018-01-14T11:13:13.282Z,66.32
2018-01-14T11:14:13.287Z,66.51
2018-01-14T11:16:06.187Z,65.41
2018-01-14T11:17:06.182Z,65.59
2018-01-14T11:18:59.273Z,66.16
2018-01-14T11:19:59.114Z,65.78
2018-01-14T11:21:52.060Z,65.59
2018-01-14T11:22:52.058Z,65.69
2018-01-14T11:24:44.952Z,64.65
2018-01-14T11:25:44.965Z,64.36
2018-01-14T11:27:37.881Z,65.03
2018-01-14T11:28:37.879Z,66.07
2018-01-14T11:30:30.801Z,66.16
2018-01-14T11:31:30.818Z,66.93
2018-01-14T11:33:23.730Z,65.88
2018-01-14T11:34:23.724Z,64.36
2018-01-14T11:36:16.644Z,63.60
2018-01-14T11:37:16.643Z,63.23
2018-01-14T11:39:09.529Z,64.74
2018-01-14T11:40:09.544Z,64.84
2018-01-14T11:42:02.496Z,64.74
2018-01-14T11:43:03.731Z,64.65
2018-01-14T11:44:55.403Z,63.51
2018-01-14T11:45:55.444Z,63.54
2018-01-14T11:47:48.332Z,64.55
2018-01-14T11:48:48.434Z,64.17
2018-01-14T11:50:41.260Z,63.54
2018-01-14T11:51:41.266Z,63.32
2018-01-14T11:53:34.178Z,63.23
2018-01-14T11:54:34.176Z,62.66
2018-01-14T11:56:27.106Z,62.56
2018-01-14T11:57:27.090Z,62.18
2018-01-14T11:59:19.984Z,62.66
2018-01-14T12:00:20.016Z,62.56
2018-01-14T12:02:12.914Z,62.47
2018-01-14T12:03:12.910Z,62.47
2018-01-14T12:05:05.840Z,62.28
2018-01-14T12:06:05.815Z,62.18
2018-01-14T12:07:58.743Z,63.13
2018-01-14T12:08:58.737Z,63.13
2018-01-14T12:10:51.624Z,63.23
2018-01-14T12:11:51.745Z,62.85
2018-01-14T12:13:45.312Z,63.70
2018-01-14T12:14:45.315Z,63.23
2018-01-14T12:16:38.228Z,62.31
2018-01-14T12:17:38.220Z,62.50
2018-01-14T12:19:31.122Z,62.50
2018-01-14T12:20:31.135Z,62.50
2018-01-14T12:22:24.070Z,61.55
2018-01-14T12:23:24.072Z,62.21
2018-01-14T12:25:16.941Z,62.02
2018-01-14T12:26:16.962Z,61.27
2018-01-14T12:28:09.872Z,61.27
2018-01-14T12:29:09.866Z,61.46
2018-01-14T12:31:02.766Z,62.12
2018-01-14T12:32:02.778Z,61.46
2018-01-14T12:33:55.690Z,61.36
2018-01-14T12:34:55.692Z,61.17
2018-01-14T12:36:48.606Z,60.98
2018-01-14T12:37:48.601Z,60.89
2018-01-14T12:39:41.541Z,61.27
2018-01-14T12:40:41.520Z,61.83
2018-01-14T12:42:34.434Z,61.36
2018-01-14T12:43:34.429Z,60.50
2018-01-14T12:45:27.327Z,60.98
2018-01-14T12:46:27.339Z,61.17
2018-01-14T12:48:20.260Z,62.21
2018-01-14T12:49:20.258Z,62.21
2018-01-14T12:51:13.155Z,62.12
2018-01-14T12:52:13.170Z,62.31
2018-01-14T12:54:06.082Z,61.74
2018-01-14T12:55:06.175Z,61.17
2018-01-14T12:56:58.989Z,61.46
2018-01-14T12:57:59.082Z,61.74
2018-01-14T12:59:51.921Z,60.73
2018-01-14T13:00:51.911Z,60.35
2018-01-14T13:02:44.813Z,60.70
2018-01-14T13:03:44.810Z,60.41
2018-01-14T13:05:37.709Z,60.31
2018-01-14T13:06:37.723Z,60.31
2018-01-14T13:08:30.637Z,60.13
2018-01-14T13:09:30.635Z,61.27
2018-01-14T13:11:23.532Z,60.31
2018-01-14T13:12:23.545Z,60.50
2018-01-14T13:14:16.464Z,60.41
2018-01-14T13:15:16.465Z,59.75
2018-01-14T13:17:09.356Z,60.60
2018-01-14T13:18:09.369Z,60.60
2018-01-14T13:20:02.285Z,61.08
2018-01-14T13:21:02.281Z,61.08
2018-01-14T13:22:55.194Z,61.08
2018-01-14T13:23:55.191Z,61.27
2018-01-14T13:25:48.085Z,61.27
2018-01-14T13:26:48.100Z,61.08
2018-01-14T13:28:41.018Z,60.41
2018-01-14T13:29:41.014Z,60.41
2018-01-14T13:31:33.904Z,60.31
2018-01-14T13:32:33.919Z,60.41
2018-01-14T13:34:26.836Z,60.31
2018-01-14T13:35:26.834Z,60.60
2018-01-14T13:37:19.726Z,60.50
2018-01-14T13:38:19.741Z,60.79
2018-01-14T13:40:12.657Z,61.08
2018-01-14T13:41:12.672Z,61.17
2018-01-14T13:43:05.571Z,60.89
2018-01-14T13:44:05.586Z,61.17
2018-01-14T13:45:58.463Z,60.50
2018-01-14T13:46:58.487Z,60.31
2018-01-14T13:48:51.391Z,60.60
2018-01-14T13:49:51.395Z,60.89
2018-01-14T13:51:44.281Z,60.89
2018-01-14T13:52:44.301Z,60.98
2018-01-14T13:54:37.212Z,61.83
2018-01-14T13:55:37.210Z,62.12
2018-01-14T13:57:30.117Z,61.27
2018-01-14T13:58:30.136Z,60.98
2018-01-14T14:00:23.043Z,61.46
2018-01-14T14:01:23.038Z,61.36
2018-01-14T14:03:15.956Z,60.98
2018-01-14T14:04:15.958Z,60.79
2018-01-14T14:06:08.849Z,61.17
2018-01-14T14:07:08.874Z,61.27
2018-01-14T14:09:01.781Z,61.27
2018-01-14T14:10:01.836Z,60.60
2018-01-14T14:11:54.665Z,61.17
2018-01-14T14:12:54.681Z,60.79
2018-01-14T14:14:47.595Z,61.46
2018-01-14T14:15:47.591Z,61.17
2018-01-14T14:17:40.488Z,62.31
2018-01-14T14:18:40.503Z,62.40
2018-01-14T14:20:33.416Z,62.69
2018-01-14T14:21:33.413Z,61.93
2018-01-14T14:23:26.333Z,61.36
2018-01-14T14:24:26.331Z,62.21
2018-01-14T14:26:19.222Z,62.02
2018-01-14T14:27:19.237Z,62.50
2018-01-14T14:29:12.175Z,62.69
2018-01-14T14:30:12.171Z,62.88
2018-01-14T14:32:05.082Z,62.59
2018-01-14T14:33:05.160Z,62.88
2018-01-14T14:34:58.012Z,63.17
2018-01-14T14:35:58.009Z,63.26
2018-01-14T14:37:50.904Z,63.64
2018-01-14T14:38:50.932Z,63.82
2018-01-14T14:40:43.830Z,63.07
2018-01-14T14:41:43.826Z,63.26
2018-01-14T14:43:36.753Z,63.54
2018-01-14T14:44:36.749Z,63.82
2018-01-14T14:46:29.654Z,63.82
2018-01-14T14:47:29.668Z,63.51
2018-01-14T14:49:22.590Z,63.45
2018-01-14T14:50:22.587Z,63.70
2018-01-14T14:52:15.485Z,63.60
2018-01-14T14:53:15.494Z,63.79
2018-01-14T14:55:08.407Z,64.27
2018-01-14T14:56:08.404Z,64.17
2018-01-14T14:58:01.299Z,64.36
2018-01-14T14:59:01.313Z,64.55
2018-01-14T15:00:54.229Z,64.46
2018-01-14T15:01:54.220Z,64.65
2018-01-14T15:03:47.138Z,64.93
2018-01-14T15:04:47.131Z,64.55
2018-01-14T15:06:40.074Z,64.84
2018-01-14T15:07:40.074Z,64.93
2018-01-14T15:09:32.948Z,64.36
2018-01-14T15:10:32.945Z,64.93
2018-01-14T15:12:25.837Z,64.84
2018-01-14T15:13:25.852Z,64.74
2018-01-14T15:15:18.785Z,65.22
2018-01-14T15:16:18.762Z,65.31
2018-01-14T15:18:11.929Z,65.78
2018-01-14T15:19:11.678Z,65.69
2018-01-14T15:21:04.584Z,65.97
2018-01-14T15:22:04.579Z,66.35
2018-01-14T15:23:57.492Z,66.45
2018-01-14T15:24:57.487Z,66.45
2018-01-14T15:26:50.379Z,66.74
2018-01-14T15:27:50.392Z,66.26
2018-01-14T15:29:44.892Z,66.89
2018-01-14T15:30:43.314Z,66.70
2018-01-14T15:32:36.419Z,66.26
2018-01-14T15:33:36.443Z,67.08
2018-01-14T15:35:29.355Z,66.89
2018-01-14T15:36:29.455Z,66.89
2018-01-14T15:38:22.245Z,67.65
2018-01-14T15:39:22.257Z,67.74
2018-01-14T15:41:15.188Z,67.74
2018-01-14T15:42:15.170Z,67.83
2018-01-14T15:44:08.089Z,67.83
2018-01-14T15:45:08.085Z,67.93
2018-01-14T15:47:00.977Z,68.79
2018-01-14T15:48:00.990Z,68.21
2018-01-14T15:49:53.906Z,68.69
2018-01-14T15:50:53.898Z,68.50
2018-01-14T15:52:46.805Z,68.40
2018-01-14T15:53:46.819Z,68.50
2018-01-14T15:55:39.732Z,68.21
2018-01-14T15:56:39.740Z,68.21
2018-01-14T15:58:32.617Z,68.98
2018-01-14T15:59:32.631Z,68.69
2018-01-14T16:01:25.550Z,69.26
2018-01-14T16:02:25.546Z,68.98
2018-01-14T16:04:18.457Z,69.54
2018-01-14T16:05:18.451Z,69.64
2018-01-14T16:07:11.344Z,69.54
2018-01-14T16:08:11.380Z,69.26
2018-01-14T16:10:04.270Z,69.82
2018-01-14T16:11:04.262Z,69.54
2018-01-14T16:12:57.157Z,70.20
2018-01-14T16:13:57.172Z,70.30
2018-01-14T16:15:50.084Z,70.01
2018-01-14T16:16:50.074Z,70.39
2018-01-14T16:18:42.963Z,70.49
2018-01-14T16:19:42.977Z,70.30
2018-01-14T16:21:35.899Z,70.64
2018-01-14T16:22:35.888Z,70.26
2018-01-14T16:24:28.878Z,70.20
2018-01-14T16:25:28.844Z,70.64
2018-01-14T16:27:21.761Z,70.93
2018-01-14T16:28:21.769Z,70.45
2018-01-14T16:30:14.685Z,71.12
2018-01-14T16:31:15.012Z,71.21
2018-01-14T16:33:07.570Z,71.40
2018-01-14T16:34:07.581Z,71.21
2018-01-14T16:36:00.513Z,71.02
2018-01-14T16:37:00.506Z,70.55
2018-01-14T16:38:53.402Z,70.93
2018-01-14T16:39:53.417Z,70.55
2018-01-14T16:41:46.324Z,70.74
2018-01-14T16:42:46.319Z,71.12
2018-01-14T16:44:39.245Z,71.31
2018-01-14T16:45:39.244Z,70.64
2018-01-14T16:47:32.136Z,70.83
2018-01-14T16:48:32.143Z,70.64
2018-01-14T16:50:25.103Z,71.02
2018-01-14T16:51:25.053Z,70.74
2018-01-14T16:53:17.960Z,70.93
2018-01-14T16:54:17.971Z,71.21
2018-01-14T16:56:10.890Z,71.50
2018-01-14T16:57:10.876Z,71.50
2018-01-14T16:59:03.773Z,71.59
2018-01-14T17:00:03.784Z,71.59
2018-01-14T17:01:56.708Z,71.50
2018-01-14T17:02:56.701Z,71.31
2018-01-14T17:04:49.616Z,71.40
2018-01-14T17:05:49.611Z,71.78
2018-01-14T17:07:42.504Z,71.97
2018-01-14T17:08:42.518Z,71.88
2018-01-14T17:10:35.464Z,72.16
2018-01-14T17:11:35.456Z,71.97
2018-01-14T17:13:28.334Z,72.63
2018-01-14T17:14:28.356Z,72.73
2018-01-14T17:16:21.372Z,72.25
2018-01-14T17:17:21.253Z,72.25
2018-01-14T17:19:14.205Z,72.82
2018-01-14T17:20:14.208Z,73.11
2018-01-14T17:22:07.076Z,72.92
2018-01-14T17:23:07.065Z,73.01
2018-01-14T17:24:59.976Z,72.53
2018-01-14T17:25:59.978Z,73.20
2018-01-14T17:27:52.862Z,73.49
2018-01-14T17:28:52.874Z,73.30
2018-01-14T17:30:45.791Z,73.20
2018-01-14T17:31:45.787Z,73.20
2018-01-14T17:33:38.678Z,73.39
2018-01-14T17:34:38.709Z,73.39
2018-01-14T17:36:31.652Z,73.30
2018-01-14T17:37:31.630Z,73.39
2018-01-14T17:39:24.504Z,73.58
2018-01-14T17:40:24.530Z,73.77
2018-01-14T17:42:17.445Z,73.92
2018-01-14T17:43:17.430Z,73.83
2018-01-14T17:45:10.339Z,74.43
2018-01-14T17:46:10.338Z,74.52
2018-01-14T17:48:03.228Z,74.11
2018-01-14T17:49:03.241Z,74.43
2018-01-14T17:50:56.150Z,74.02
2018-01-14T17:51:56.143Z,73.73
2018-01-14T17:53:49.046Z,74.33
2018-01-14T17:54:49.051Z,74.33
2018-01-14T17:56:41.960Z,74.15
2018-01-14T17:57:41.975Z,74.21
2018-01-14T17:59:34.845Z,74.40
2018-01-14T18:00:34.858Z,74.68
2018-01-14T18:02:28.767Z,74.49
2018-01-14T18:03:28.764Z,74.62
2018-01-14T18:05:21.678Z,74.68
2018-01-14T18:06:21.673Z,74.87
2018-01-14T18:08:14.601Z,74.49
2018-01-14T18:09:14.621Z,74.77
2018-01-14T18:11:07.487Z,75.15
2018-01-14T18:12:07.486Z,75.15
2018-01-14T18:14:00.376Z,75.05
2018-01-14T18:15:00.387Z,74.77
2018-01-14T18:16:53.300Z,74.30
2018-01-14T18:17:53.294Z,74.30
2018-01-14T18:19:46.194Z,74.49
2018-01-14T18:20:46.197Z,74.40
2018-01-14T18:22:39.233Z,74.77
2018-01-14T18:23:39.226Z,74.77
2018-01-14T18:25:32.137Z,74.21
2018-01-14T18:26:32.130Z,74.58
2018-01-14T18:28:25.060Z,74.40
2018-01-14T18:29:25.046Z,74.30
2018-01-14T18:31:17.943Z,74.68
2018-01-14T18:32:17.981Z,74.58
2018-01-14T18:34:10.830Z,74.49